createdAt,value
2019-04-26T00:01:29.989Z,62.40
2019-04-26T00:03:59.206Z,63.30
2019-04-26T00:06:29.045Z,63.10
2019-04-26T00:09:06.367Z,62.90
2019-04-26T00:11:49.194Z,63.00
2019-04-26T00:14:54.875Z,62.90
2019-04-26T00:17:34.579Z,62.90
2019-04-26T00:20:11.927Z,62.60
2019-04-26T00:22:45.761Z,63.60
2019-04-26T00:25:16.530Z,62.50
2019-04-26T00:27:45.784Z,63.10
2019-04-26T00:30:15.452Z,63.40
2019-04-26T00:32:46.647Z,63.00
2019-04-26T00:35:15.741Z,62.50
2019-04-26T00:37:45.323Z,63.30
2019-04-26T00:40:16.863Z,63.80
2019-04-26T00:42:49.348Z,63.70
2019-04-26T00:45:20.991Z,63.10
2019-04-26T00:47:51.140Z,63.20
2019-04-26T00:50:22.013Z,64.80
2019-04-26T00:52:54.018Z,64.10
2019-04-26T00:55:23.983Z,63.80
2019-04-26T00:57:57.901Z,63.30
2019-04-26T01:00:27.111Z,63.40
2019-04-26T01:02:57.447Z,64.00
2019-04-26T01:05:32.284Z,63.00
2019-04-26T01:08:01.478Z,63.10
2019-04-26T01:10:30.676Z,63.10
2019-04-26T01:13:01.783Z,63.80
2019-04-26T01:15:31.325Z,64.30
2019-04-26T01:18:00.423Z,63.00
2019-04-26T01:20:33.824Z,63.50
2019-04-26T01:23:06.267Z,63.70
2019-04-26T01:25:54.828Z,65.20
2019-04-26T01:28:34.849Z,64.20
2019-04-26T01:31:07.832Z,64.50
2019-04-26T01:33:39.671Z,63.40
2019-04-26T01:36:13.394Z,64.60
2019-04-26T01:38:40.004Z,64.20
2019-04-26T01:41:15.460Z,64.40
2019-04-26T01:44:03.712Z,64.10
2019-04-26T01:46:39.342Z,62.90
2019-04-26T01:49:11.573Z,63.40
2019-04-26T01:51:54.405Z,63.40
2019-04-26T01:54:28.179Z,62.80
2019-04-26T01:57:02.435Z,63.60
2019-04-26T01:59:34.640Z,63.40
2019-04-26T02:02:25.611Z,63.30
2019-04-26T02:04:59.053Z,63.50
2019-04-26T02:07:42.217Z,63.50
2019-04-26T02:10:16.650Z,62.60
2019-04-26T02:12:48.095Z,63.30
2019-04-26T02:15:23.006Z,63.00
2019-04-26T02:17:53.894Z,62.70
2019-04-26T02:21:02.578Z,63.30
2019-04-26T02:23:37.677Z,63.00
2019-04-26T02:26:26.518Z,62.80
2019-04-26T02:28:55.923Z,62.70
2019-04-26T02:31:28.773Z,62.50
2019-04-26T02:34:01.076Z,65.30
2019-04-26T02:36:48.298Z,63.50
2019-04-26T02:39:08.079Z,63.40
2019-04-26T02:41:38.612Z,63.00
2019-04-26T02:44:12.177Z,63.00
2019-04-26T02:46:52.207Z,63.30
2019-04-26T02:49:31.269Z,63.80
2019-04-26T02:52:16.923Z,63.30
2019-04-26T02:54:59.335Z,63.40
2019-04-26T02:57:46.882Z,63.40
2019-04-26T03:00:19.107Z,63.70
2019-04-26T03:02:55.635Z,64.00
2019-04-26T03:05:26.496Z,63.00
2019-04-26T03:08:18.999Z,62.60
2019-04-26T03:11:05.619Z,62.50
2019-04-26T03:13:47.451Z,62.50
2019-04-26T03:16:34.710Z,62.30
2019-04-26T03:19:23.456Z,62.20
2019-04-26T03:22:06.210Z,62.10
2019-04-26T03:24:48.806Z,62.70
2019-04-26T03:27:58.353Z,63.30
2019-04-26T03:31:09.423Z,64.00
2019-04-26T03:33:54.260Z,63.80
2019-04-26T03:36:44.515Z,64.60
2019-04-26T03:39:28.939Z,63.80
2019-04-26T03:42:35.068Z,64.80
2019-04-26T03:45:22.728Z,66.20
2019-04-26T03:48:01.647Z,66.90
2019-04-26T03:50:41.074Z,65.90
2019-04-26T03:53:25.221Z,66.50
2019-04-26T03:56:28.236Z,67.30
2019-04-26T03:59:16.645Z,66.80
2019-04-26T04:02:09.015Z,65.90
2019-04-26T04:04:51.635Z,65.90
2019-04-26T04:07:36.147Z,65.80
2019-04-26T04:10:08.513Z,66.10
2019-04-26T04:12:54.863Z,66.30
2019-04-26T04:15:30.601Z,65.80
2019-04-26T04:18:06.353Z,67.20
2019-04-26T04:21:08.561Z,65.70
2019-04-26T04:24:15.959Z,66.40
2019-04-26T04:27:14.401Z,66.10
2019-04-26T04:29:57.469Z,65.10
2019-04-26T04:32:49.823Z,64.40
2019-04-26T04:35:22.874Z,64.50
2019-04-26T04:38:08.789Z,64.20
2019-04-26T04:41:19.540Z,64.30
2019-04-26T04:44:01.278Z,64.40
2019-04-26T04:47:23.573Z,64.90
2019-04-26T04:49:53.209Z,65.30
2019-04-26T04:52:43.202Z,65.30
2019-04-26T04:55:21.852Z,66.20
2019-04-26T04:58:05.068Z,64.90
2019-04-26T05:01:18.006Z,64.70
2019-04-26T05:04:07.012Z,64.70
2019-04-26T05:07:25.364Z,65.10
2019-04-26T05:10:07.136Z,65.30
2019-04-26T05:12:49.992Z,65.60
2019-04-26T05:16:05.274Z,64.70
2019-04-26T05:18:57.162Z,65.30
2019-04-26T05:21:50.911Z,66.00
2019-04-26T05:24:35.159Z,67.30
2019-04-26T05:27:49.205Z,66.40
2019-04-26T05:30:56.145Z,65.60
2019-04-26T05:33:56.740Z,66.20
2019-04-26T05:36:40.404Z,66.00
2019-04-26T05:39:21.000Z,65.60
2019-04-26T05:42:24.551Z,64.60
2019-04-26T05:45:34.944Z,64.20
2019-04-26T05:48:32.087Z,64.20
2019-04-26T05:51:39.744Z,64.00
2019-04-26T05:54:58.987Z,65.30
2019-04-26T05:57:43.728Z,66.40
2019-04-26T06:00:50.438Z,65.40
2019-04-26T06:03:47.400Z,65.70
2019-04-26T06:06:27.876Z,67.40
2019-04-26T06:09:36.829Z,66.10
2019-04-26T06:12:17.381Z,65.10
2019-04-26T06:15:21.796Z,66.50
2019-04-26T06:18:33.007Z,66.90
2019-04-26T06:21:10.953Z,66.00
2019-04-26T06:24:10.460Z,66.20
2019-04-26T06:27:13.728Z,65.80
2019-04-26T06:29:53.535Z,65.00
2019-04-26T06:32:30.600Z,66.20
2019-04-26T06:35:14.483Z,66.70
2019-04-26T06:38:21.005Z,66.10
2019-04-26T06:41:25.347Z,66.20
2019-04-26T06:44:01.368Z,66.10
2019-04-26T06:47:04.021Z,66.90
2019-04-26T06:50:10.047Z,66.90
2019-04-26T06:53:06.490Z,66.40
2019-04-26T06:55:59.061Z,66.30
2019-04-26T06:58:44.276Z,65.40
2019-04-26T07:01:26.810Z,66.00
2019-04-26T07:04:19.347Z,66.10
2019-04-26T07:07:19.004Z,66.10
2019-04-26T07:10:11.107Z,64.80
2019-04-26T07:12:54.793Z,65.70
2019-04-26T07:15:49.183Z,65.50
2019-04-26T07:18:39.021Z,64.50
2019-04-26T07:21:34.994Z,64.30
2019-04-26T07:24:57.966Z,63.80
2019-04-26T07:28:03.398Z,64.50
2019-04-26T07:30:48.571Z,64.10
2019-04-26T07:33:50.529Z,64.30
2019-04-26T07:36:55.498Z,64.30
2019-04-26T07:40:13.968Z,63.90
2019-04-26T07:43:16.908Z,63.30
2019-04-26T07:46:10.624Z,64.40
2019-04-26T07:49:16.676Z,64.20
2019-04-26T07:52:31.751Z,63.70
2019-04-26T07:55:33.289Z,63.90
2019-04-26T07:58:49.595Z,63.70
2019-04-26T08:01:36.969Z,63.40
2019-04-26T08:04:12.256Z,63.60
2019-04-26T08:07:08.265Z,63.50
2019-04-26T08:09:40.889Z,62.80
2019-04-26T08:12:12.148Z,62.60
2019-04-26T08:14:59.603Z,62.60
2019-04-26T08:17:49.227Z,62.20
2019-04-26T08:20:45.035Z,62.30
2019-04-26T08:23:37.571Z,62.10
2019-04-26T08:25:50.135Z,62.10
2019-04-26T08:28:22.613Z,61.90
2019-04-26T08:30:54.907Z,61.70
2019-04-26T08:33:31.542Z,61.60
2019-04-26T08:36:04.060Z,61.30
2019-04-26T08:38:36.131Z,61.50
2019-04-26T08:41:07.335Z,61.50
2019-04-26T08:44:03.689Z,61.70
2019-04-26T08:47:15.103Z,61.50
2019-04-26T08:50:15.195Z,61.40
2019-04-26T08:52:48.755Z,61.10
2019-04-26T08:55:20.166Z,60.90
2019-04-26T08:57:53.186Z,60.90
2019-04-26T09:00:53.834Z,60.20
2019-04-26T09:03:43.795Z,60.00
2019-04-26T09:06:45.785Z,60.00
2019-04-26T09:09:21.654Z,59.80
2019-04-26T09:11:59.788Z,59.80
2019-04-26T09:14:26.982Z,59.90
2019-04-26T09:16:56.215Z,59.50
2019-04-26T09:19:26.142Z,59.60
2019-04-26T09:22:32.007Z,59.20
2019-04-26T09:25:22.604Z,58.70
2019-04-26T09:27:58.890Z,59.10
2019-04-26T09:30:52.335Z,59.10
2019-04-26T09:33:36.026Z,58.90
2019-04-26T09:36:04.095Z,58.90
2019-04-26T09:38:33.502Z,59.00
2019-04-26T09:41:02.736Z,58.90
2019-04-26T09:43:38.553Z,58.80
2019-04-26T09:46:27.011Z,57.70
2019-04-26T09:49:23.939Z,58.50
2019-04-26T09:51:53.559Z,57.80
2019-04-26T09:54:22.758Z,58.50
2019-04-26T09:56:51.991Z,58.40
2019-04-26T09:59:21.244Z,57.80
2019-04-26T10:01:50.563Z,58.30
2019-04-26T10:04:19.757Z,57.20
2019-04-26T10:06:48.961Z,57.90
2019-04-26T10:09:21.250Z,57.70
2019-04-26T10:11:57.807Z,57.70
2019-04-26T10:14:42.734Z,57.30
2019-04-26T10:17:31.028Z,57.00
2019-04-26T10:20:00.318Z,56.80
2019-04-26T10:22:32.139Z,56.70
2019-04-26T10:25:02.635Z,57.50
2019-04-26T10:27:32.546Z,57.20
2019-04-26T10:30:08.012Z,56.70
2019-04-26T10:32:32.679Z,56.00
2019-04-26T10:35:01.836Z,56.70
2019-04-26T10:37:39.239Z,55.70
2019-04-26T10:40:02.156Z,56.40
2019-04-26T10:42:31.402Z,54.90
2019-04-26T10:45:03.198Z,54.70
2019-04-26T10:47:34.355Z,54.50
2019-04-26T10:50:08.155Z,54.80
2019-04-26T10:52:54.256Z,55.00
2019-04-26T10:56:00.813Z,53.90
2019-04-26T10:58:41.581Z,54.30
2019-04-26T11:01:20.097Z,54.80
2019-04-26T11:04:02.841Z,55.70
2019-04-26T11:06:33.680Z,55.50
2019-04-26T11:09:04.846Z,54.80
2019-04-26T11:11:35.057Z,54.20
2019-04-26T11:14:12.036Z,54.70
2019-04-26T11:16:45.500Z,54.60
2019-04-26T11:19:19.820Z,54.10
2019-04-26T11:21:54.697Z,53.40
2019-04-26T11:24:23.436Z,53.60
2019-04-26T11:26:53.827Z,53.70
2019-04-26T11:29:28.692Z,54.70
2019-04-26T11:32:02.678Z,54.40
2019-04-26T11:34:33.040Z,53.30
2019-04-26T11:37:04.259Z,54.70
2019-04-26T11:39:43.926Z,54.90
2019-04-26T11:42:18.555Z,54.80
2019-04-26T11:44:52.735Z,54.20
2019-04-26T11:47:25.290Z,54.20
2019-04-26T11:49:56.866Z,53.80
2019-04-26T11:52:28.566Z,53.80
2019-04-26T11:54:59.235Z,53.30
2019-04-26T11:57:31.527Z,54.10
2019-04-26T12:00:05.579Z,53.40
2019-04-26T12:02:38.350Z,53.00
2019-04-26T12:05:22.617Z,53.10
2019-04-26T12:08:02.970Z,52.60
2019-04-26T12:10:43.908Z,53.60
2019-04-26T12:13:13.175Z,53.30
2019-04-26T12:15:50.522Z,52.40
2019-04-26T12:18:27.221Z,53.20
2019-04-26T12:21:16.642Z,50.80
2019-04-26T12:23:51.304Z,51.60
2019-04-26T12:26:28.100Z,52.20
2019-04-26T12:29:14.706Z,50.90
2019-04-26T12:31:43.443Z,51.50
2019-04-26T12:34:24.657Z,51.30
2019-04-26T12:37:01.539Z,52.10
2019-04-26T12:39:50.158Z,51.60
2019-04-26T12:42:21.973Z,50.90
2019-04-26T12:45:20.142Z,50.70
2019-04-26T12:47:58.849Z,49.20
2019-04-26T12:50:36.503Z,49.30
2019-04-26T12:53:02.283Z,50.60
2019-04-26T12:55:42.707Z,51.50
2019-04-26T12:58:15.371Z,49.60
2019-04-26T13:00:54.384Z,50.40
2019-04-26T13:03:20.905Z,51.90
2019-04-26T13:05:57.673Z,51.10
2019-04-26T13:08:24.010Z,50.90
2019-04-26T13:11:26.959Z,48.90
2019-04-26T13:14:06.017Z,51.60
2019-04-26T13:16:57.203Z,50.60
2019-04-26T13:19:26.912Z,50.40
2019-04-26T13:21:56.141Z,50.90
2019-04-26T13:24:25.361Z,48.90
2019-04-26T13:26:54.480Z,49.10
2019-04-26T13:29:27.300Z,49.10
2019-04-26T13:31:54.520Z,45.20
2019-04-26T13:34:23.764Z,46.90
2019-04-26T13:36:52.966Z,44.00
2019-04-26T13:39:22.539Z,45.50
2019-04-26T13:42:02.134Z,44.10
2019-04-26T13:44:40.904Z,44.20
2019-04-26T13:47:31.818Z,41.40
2019-04-26T13:50:10.625Z,43.00
2019-04-26T13:52:39.934Z,41.20
2019-04-26T13:55:09.109Z,40.10
2019-04-26T13:57:40.279Z,38.00
2019-04-26T14:00:11.791Z,40.70
2019-04-26T14:02:41.132Z,41.90
2019-04-26T14:05:11.188Z,40.00
2019-04-26T14:07:41.280Z,40.30
2019-04-26T14:10:10.528Z,41.10
2019-04-26T14:12:39.657Z,42.90
2019-04-26T14:15:10.096Z,41.30
2019-04-26T14:17:39.741Z,41.80
2019-04-26T14:20:08.938Z,41.30
2019-04-26T14:22:43.359Z,43.50
2019-04-26T14:25:15.737Z,45.50
2019-04-26T14:27:49.879Z,41.60
2019-04-26T14:30:19.054Z,42.00
2019-04-26T14:32:48.271Z,45.00
2019-04-26T14:35:17.529Z,44.10
2019-04-26T14:37:49.822Z,42.70
2019-04-26T14:40:17.900Z,41.30
2019-04-26T14:42:48.906Z,40.10
2019-04-26T14:45:23.678Z,42.30
2019-04-26T14:47:49.239Z,42.10
2019-04-26T14:50:18.437Z,41.60
2019-04-26T14:52:47.572Z,41.50
2019-04-26T14:55:21.031Z,43.90
2019-04-26T14:57:51.389Z,41.90
2019-04-26T15:00:22.238Z,41.20
2019-04-26T15:03:20.868Z,40.40
2019-04-26T15:06:23.323Z,42.80
2019-04-26T15:08:53.072Z,41.90
2019-04-26T15:11:22.992Z,38.90
2019-04-26T15:13:52.373Z,38.50
2019-04-26T15:16:22.699Z,38.90
2019-04-26T15:18:52.587Z,38.10
2019-04-26T15:21:22.803Z,36.60
2019-04-26T15:23:55.414Z,36.10
2019-04-26T15:26:29.397Z,37.30
2019-04-26T15:28:54.275Z,37.40
2019-04-26T15:31:24.940Z,40.30
2019-04-26T15:33:54.304Z,40.40
2019-04-26T15:36:23.499Z,39.90
2019-04-26T15:38:52.953Z,38.90
2019-04-26T15:41:33.195Z,38.70
2019-04-26T15:44:14.671Z,39.50
2019-04-26T15:47:03.238Z,39.90
2019-04-26T15:49:37.003Z,40.70
2019-04-26T15:52:06.615Z,39.40
2019-04-26T15:54:35.986Z,40.60
2019-04-26T15:57:06.634Z,43.20
2019-04-26T15:59:35.992Z,43.00
2019-04-26T16:02:05.572Z,43.40
2019-04-26T16:04:35.006Z,43.10
2019-04-26T16:07:04.331Z,40.90
2019-04-26T16:09:33.594Z,43.30
2019-04-26T16:12:03.583Z,42.10
2019-04-26T16:14:36.423Z,40.30
2019-04-26T16:17:06.764Z,42.40
2019-04-26T16:19:36.088Z,42.70
2019-04-26T16:22:05.862Z,42.20
2019-04-26T16:24:35.005Z,45.30
2019-04-26T16:27:04.499Z,44.70
2019-04-26T16:29:58.250Z,40.60
2019-04-26T16:32:43.126Z,40.80
2019-04-26T16:35:12.080Z,40.60
2019-04-26T16:37:43.042Z,42.30
2019-04-26T16:40:13.700Z,40.70
2019-04-26T16:42:45.124Z,43.40
2019-04-26T16:45:15.200Z,41.60
2019-04-26T16:50:23.988Z,40.90
2019-04-26T16:52:48.572Z,40.20
2019-04-26T16:55:21.053Z,40.50
2019-04-26T16:57:55.684Z,39.60
2019-04-26T17:00:31.885Z,39.20
2019-04-26T17:03:06.483Z,41.40
2019-04-26T17:08:05.032Z,40.40
2019-04-26T17:09:50.391Z,40.50
2019-04-26T17:09:51.186Z,39.30
2019-04-26T17:10:33.825Z,40.50
2019-04-26T17:13:03.230Z,39.20
2019-04-26T17:15:34.494Z,40.90
2019-04-26T17:18:03.621Z,39.70
2019-04-26T17:20:34.015Z,40.10
2019-04-26T17:23:25.427Z,40.50
2019-04-26T17:26:11.226Z,41.10
2019-04-26T17:28:40.639Z,39.20
2019-04-26T17:31:09.865Z,39.60
2019-04-26T17:33:39.108Z,39.30
2019-04-26T17:36:11.335Z,39.60
2019-04-26T17:38:41.967Z,39.80
2019-04-26T17:41:13.549Z,41.60
2019-04-26T17:43:47.599Z,41.20
2019-04-26T17:46:18.264Z,42.50
2019-04-26T17:48:49.318Z,43.90
2019-04-26T17:51:21.161Z,43.80
2019-04-26T17:53:58.840Z,44.00
2019-04-26T17:56:21.822Z,45.20
2019-04-26T17:58:54.715Z,44.90
2019-04-26T18:01:42.125Z,44.90
2019-04-26T18:03:55.894Z,45.90
2019-04-26T18:06:29.711Z,46.80
2019-04-26T18:08:58.499Z,46.80
2019-04-26T18:11:27.602Z,46.70
2019-04-26T18:13:56.797Z,47.10
2019-04-26T18:16:29.527Z,47.50
2019-04-26T18:19:13.722Z,47.20
2019-04-26T18:21:59.927Z,47.80
2019-04-26T18:24:32.270Z,48.10
2019-04-26T18:27:00.676Z,47.90
2019-04-26T18:29:30.451Z,47.60
2019-04-26T18:32:03.701Z,48.20
2019-04-26T18:34:40.084Z,48.30
2019-04-26T18:37:07.413Z,47.70
2019-04-26T18:39:40.462Z,47.60
2019-04-26T18:42:10.680Z,48.80
2019-04-26T18:44:47.588Z,47.50
2019-04-26T18:47:39.684Z,48.80
2019-04-26T18:50:09.311Z,48.30
2019-04-26T18:52:44.298Z,49.10
2019-04-26T18:55:28.551Z,49.00
2019-04-26T18:58:01.365Z,48.70
2019-04-26T19:00:31.066Z,48.70
2019-04-26T19:03:02.248Z,48.60
2019-04-26T19:05:33.830Z,49.40
2019-04-26T19:08:05.232Z,48.90
2019-04-26T19:10:36.307Z,49.20
2019-04-26T19:13:22.006Z,49.70
2019-04-26T19:16:17.100Z,49.50
2019-04-26T19:19:03.226Z,49.50
2019-04-26T19:21:54.705Z,49.40
2019-04-26T19:24:24.224Z,49.60
2019-04-26T19:26:54.176Z,49.70
2019-04-26T19:29:32.865Z,49.90
2019-04-26T19:32:01.539Z,50.20
2019-04-26T19:34:31.338Z,50.20
2019-04-26T19:37:03.168Z,50.60
2019-04-26T19:39:37.127Z,50.60
2019-04-26T19:42:08.610Z,50.80
2019-04-26T19:44:38.277Z,51.10
2019-04-26T19:47:26.994Z,50.90
2019-04-26T19:50:13.924Z,51.40
2019-04-26T19:52:52.501Z,51.50
2019-04-26T19:55:47.245Z,51.50
2019-04-26T19:58:20.397Z,51.60
2019-04-26T20:00:47.371Z,51.80
2019-04-26T20:03:18.171Z,51.90
2019-04-26T20:05:48.313Z,52.00
2019-04-26T20:08:21.540Z,52.20
2019-04-26T20:10:50.068Z,52.40
2019-04-26T20:13:22.188Z,52.40
2019-04-26T20:15:53.060Z,52.20
2019-04-26T20:18:22.410Z,52.40
2019-04-26T20:20:52.233Z,52.40
2019-04-26T20:23:22.939Z,52.50
2019-04-26T20:25:53.035Z,52.60
2019-04-26T20:28:25.692Z,52.60
2019-04-26T20:31:22.729Z,52.80
2019-04-26T20:34:01.343Z,53.00
2019-04-26T20:36:37.183Z,53.00
2019-04-26T20:39:07.251Z,53.20
2019-04-26T20:41:38.640Z,53.10
2019-04-26T20:44:10.067Z,53.20
2019-04-26T20:46:40.343Z,53.30
2019-04-26T20:49:32.259Z,53.40
2019-04-26T20:52:01.987Z,53.60
2019-04-26T20:54:33.846Z,53.30
2019-04-26T20:57:04.005Z,53.40
2019-04-26T20:59:35.219Z,53.60
2019-04-26T21:02:08.151Z,53.40
2019-04-26T21:04:42.247Z,53.50
2019-04-26T21:07:14.098Z,53.60
2019-04-26T21:09:45.144Z,53.80
2019-04-26T21:12:21.511Z,54.10
2019-04-26T21:14:54.634Z,54.20
2019-04-26T21:17:28.040Z,54.60
2019-04-26T21:20:02.260Z,54.70
2019-04-26T21:22:34.731Z,54.50
2019-04-26T21:25:11.943Z,54.50
2019-04-26T21:27:51.825Z,55.20
2019-04-26T21:30:34.733Z,55.40
2019-04-26T21:33:38.873Z,55.00
2019-04-26T21:36:24.223Z,56.00
2019-04-26T21:39:04.056Z,55.60
2019-04-26T21:41:33.832Z,55.30
2019-04-26T21:44:03.244Z,55.20
2019-04-26T21:46:37.127Z,55.50
2019-04-26T21:49:06.349Z,55.20
2019-04-26T21:51:44.638Z,55.00
2019-04-26T21:54:18.004Z,55.00
2019-04-26T21:56:48.578Z,55.70
2019-04-26T21:59:17.110Z,55.30
2019-04-26T22:01:53.804Z,55.50
2019-04-26T22:04:19.123Z,56.60
2019-04-26T22:06:48.246Z,55.40
2019-04-26T22:09:38.515Z,55.90
2019-04-26T22:12:15.223Z,56.30
2019-04-26T22:14:50.577Z,56.20
2019-04-26T22:17:36.296Z,56.50
2019-04-26T22:20:29.567Z,55.80
2019-04-26T22:23:18.048Z,56.30
2019-04-26T22:25:51.005Z,56.50
2019-04-26T22:28:23.456Z,56.60
2019-04-26T22:30:53.504Z,56.00
2019-04-26T22:33:30.756Z,56.80
2019-04-26T22:35:58.533Z,56.80
2019-04-26T22:38:28.075Z,56.70
2019-04-26T22:41:10.954Z,57.10
2019-04-26T22:43:57.673Z,56.60
2019-04-26T22:46:48.662Z,57.20
2019-04-26T22:49:13.729Z,57.00
2019-04-26T22:51:44.571Z,56.60
2019-04-26T22:54:15.447Z,56.90
2019-04-26T22:56:46.049Z,57.50
2019-04-26T22:59:16.552Z,57.40
2019-04-26T23:01:48.665Z,57.50
2019-04-26T23:04:23.661Z,57.70
2019-04-26T23:06:49.918Z,57.20
2019-04-26T23:09:23.386Z,57.90
2019-04-26T23:12:00.267Z,57.70
2019-04-26T23:14:48.270Z,57.40
2019-04-26T23:17:32.872Z,57.10
2019-04-26T23:20:21.287Z,57.40
2019-04-26T23:23:00.562Z,57.40
2019-04-26T23:25:34.447Z,58.30
2019-04-26T23:28:07.555Z,57.70
2019-04-26T23:30:39.278Z,58.10
2019-04-26T23:33:10.259Z,57.30
2019-04-26T23:35:43.492Z,58.00
2019-04-26T23:38:13.432Z,57.30
2019-04-26T23:40:43.095Z,57.80
2019-04-26T23:43:14.616Z,57.80
2019-04-26T23:45:48.400Z,57.10
2019-04-26T23:48:16.474Z,58.10
2019-04-26T23:50:45.488Z,58.70
2019-04-26T23:53:14.670Z,57.90
2019-04-26T23:55:48.568Z,57.80
2019-04-26T23:58:17.706Z,58.70
